sensor_id;sensor_type;location;lat;lon;timestamp;temperature;humidity
326;DHT22;150;52.352;14.058;2024-02-16T00:00:57;10.30;50.30
326;DHT22;150;52.352;14.058;2024-02-16T00:03:25;10.30;50.30
326;DHT22;150;52.352;14.058;2024-02-16T00:05:52;10.30;50.00
326;DHT22;150;52.352;14.058;2024-02-16T00:08:18;10.30;50.30
326;DHT22;150;52.352;14.058;2024-02-16T00:10:47;10.30;49.90
326;DHT22;150;52.352;14.058;2024-02-16T00:13:13;10.20;49.70
326;DHT22;150;52.352;14.058;2024-02-16T00:15:40;10.10;50.40
326;DHT22;150;52.352;14.058;2024-02-16T00:18:07;10.10;50.10
326;DHT22;150;52.352;14.058;2024-02-16T00:20:34;10.10;50.10
326;DHT22;150;52.352;14.058;2024-02-16T00:23:00;10.10;50.10
326;DHT22;150;52.352;14.058;2024-02-16T00:25:27;10.10;49.60
326;DHT22;150;52.352;14.058;2024-02-16T00:27:55;10.10;49.50
326;DHT22;150;52.352;14.058;2024-02-16T00:30:22;10.00;49.50
326;DHT22;150;52.352;14.058;2024-02-16T00:32:48;10.00;49.90
326;DHT22;150;52.352;14.058;2024-02-16T00:35:15;9.90;49.60
326;DHT22;150;52.352;14.058;2024-02-16T00:37:43;9.90;49.90
326;DHT22;150;52.352;14.058;2024-02-16T00:40:11;9.90;49.90
326;DHT22;150;52.352;14.058;2024-02-16T00:42:38;9.90;49.90
326;DHT22;150;52.352;14.058;2024-02-16T00:45:07;9.90;49.90
326;DHT22;150;52.352;14.058;2024-02-16T00:47:34;9.90;49.90
326;DHT22;150;52.352;14.058;2024-02-16T00:50:01;9.90;49.90
326;DHT22;150;52.352;14.058;2024-02-16T00:52:30;9.80;50.60
326;DHT22;150;52.352;14.058;2024-02-16T00:54:57;9.80;49.80
326;DHT22;150;52.352;14.058;2024-02-16T00:57:24;9.70;50.40
326;DHT22;150;52.352;14.058;2024-02-16T00:59:50;9.70;50.50
326;DHT22;150;52.352;14.058;2024-02-16T01:02:18;9.70;50.80
326;DHT22;150;52.352;14.058;2024-02-16T01:04:45;9.70;50.70
326;DHT22;150;52.352;14.058;2024-02-16T01:07:12;9.70;50.40
326;DHT22;150;52.352;14.058;2024-02-16T01:09:39;9.70;50.20
326;DHT22;150;52.352;14.058;2024-02-16T01:12:05;9.70;50.20
326;DHT22;150;52.352;14.058;2024-02-16T01:14:32;9.70;50.00
326;DHT22;150;52.352;14.058;2024-02-16T01:16:59;9.70;49.70
326;DHT22;150;52.352;14.058;2024-02-16T01:19:26;9.60;49.60
326;DHT22;150;52.352;14.058;2024-02-16T01:21:53;9.60;49.60
326;DHT22;150;52.352;14.058;2024-02-16T01:24:23;9.50;49.80
326;DHT22;150;52.352;14.058;2024-02-16T01:26:49;9.50;49.90
326;DHT22;150;52.352;14.058;2024-02-16T01:29:16;9.50;50.20
326;DHT22;150;52.352;14.058;2024-02-16T01:31:42;9.40;50.20
326;DHT22;150;52.352;14.058;2024-02-16T01:34:09;9.40;50.30
326;DHT22;150;52.352;14.058;2024-02-16T01:36:37;9.30;50.10
326;DHT22;150;52.352;14.058;2024-02-16T01:39:04;9.20;50.40
326;DHT22;150;52.352;14.058;2024-02-16T01:41:32;9.20;50.80
326;DHT22;150;52.352;14.058;2024-02-16T01:43:59;9.20;51.20
326;DHT22;150;52.352;14.058;2024-02-16T01:46:26;9.20;51.20
326;DHT22;150;52.352;14.058;2024-02-16T01:48:53;9.20;51.10
326;DHT22;150;52.352;14.058;2024-02-16T01:51:21;9.20;51.40
326;DHT22;150;52.352;14.058;2024-02-16T01:53:50;9.10;51.50
326;DHT22;150;52.352;14.058;2024-02-16T01:56:17;9.10;51.40
326;DHT22;150;52.352;14.058;2024-02-16T01:58:46;9.10;51.40
326;DHT22;150;52.352;14.058;2024-02-16T02:01:12;9.00;51.50
326;DHT22;150;52.352;14.058;2024-02-16T02:03:39;8.90;51.70
326;DHT22;150;52.352;14.058;2024-02-16T02:06:06;8.90;52.40
326;DHT22;150;52.352;14.058;2024-02-16T02:08:33;8.80;52.70
326;DHT22;150;52.352;14.058;2024-02-16T02:11:01;8.80;53.00
326;DHT22;150;52.352;14.058;2024-02-16T02:13:28;8.70;53.20
326;DHT22;150;52.352;14.058;2024-02-16T02:15:56;8.70;53.90
326;DHT22;150;52.352;14.058;2024-02-16T02:18:23;8.70;53.90
326;DHT22;150;52.352;14.058;2024-02-16T02:20:50;8.60;53.80
326;DHT22;150;52.352;14.058;2024-02-16T02:23:18;8.60;53.80
326;DHT22;150;52.352;14.058;2024-02-16T02:25:45;8.60;53.90
326;DHT22;150;52.352;14.058;2024-02-16T02:28:12;8.70;53.90
326;DHT22;150;52.352;14.058;2024-02-16T02:30:39;8.60;53.90
326;DHT22;150;52.352;14.058;2024-02-16T02:33:06;8.70;53.80
326;DHT22;150;52.352;14.058;2024-02-16T02:35:34;8.60;53.90
326;DHT22;150;52.352;14.058;2024-02-16T02:38:01;8.70;53.90
326;DHT22;150;52.352;14.058;2024-02-16T02:40:29;8.70;53.60
326;DHT22;150;52.352;14.058;2024-02-16T02:42:55;8.80;53.60
326;DHT22;150;52.352;14.058;2024-02-16T02:45:22;8.80;53.20
326;DHT22;150;52.352;14.058;2024-02-16T02:47:49;8.80;52.40
326;DHT22;150;52.352;14.058;2024-02-16T02:50:15;8.80;51.90
326;DHT22;150;52.352;14.058;2024-02-16T02:52:43;8.80;52.50
326;DHT22;150;52.352;14.058;2024-02-16T02:55:11;8.80;52.60
326;DHT22;150;52.352;14.058;2024-02-16T02:57:39;8.80;52.50
326;DHT22;150;52.352;14.058;2024-02-16T03:00:07;8.80;52.60
326;DHT22;150;52.352;14.058;2024-02-16T03:02:36;8.90;52.90
326;DHT22;150;52.352;14.058;2024-02-16T03:05:03;8.90;52.90
326;DHT22;150;52.352;14.058;2024-02-16T03:07:30;8.90;52.50
326;DHT22;150;52.352;14.058;2024-02-16T03:09:57;8.90;52.50
326;DHT22;150;52.352;14.058;2024-02-16T03:12:24;9.00;52.40
326;DHT22;150;52.352;14.058;2024-02-16T03:14:52;8.90;51.60
326;DHT22;150;52.352;14.058;2024-02-16T03:17:19;8.90;51.70
326;DHT22;150;52.352;14.058;2024-02-16T03:19:45;9.00;52.20
326;DHT22;150;52.352;14.058;2024-02-16T03:22:12;9.00;52.00
326;DHT22;150;52.352;14.058;2024-02-16T03:24:39;9.00;52.30
326;DHT22;150;52.352;14.058;2024-02-16T03:27:05;9.00;52.10
326;DHT22;150;52.352;14.058;2024-02-16T03:29:32;9.00;52.40
326;DHT22;150;52.352;14.058;2024-02-16T03:32:00;9.00;52.20
326;DHT22;150;52.352;14.058;2024-02-16T03:34:26;9.00;52.10
326;DHT22;150;52.352;14.058;2024-02-16T03:36:53;9.00;52.10
326;DHT22;150;52.352;14.058;2024-02-16T03:39:20;9.00;52.40
326;DHT22;150;52.352;14.058;2024-02-16T03:41:46;9.10;52.70
326;DHT22;150;52.352;14.058;2024-02-16T03:44:14;9.00;52.20
326;DHT22;150;52.352;14.058;2024-02-16T03:46:41;9.10;52.40
326;DHT22;150;52.352;14.058;2024-02-16T03:49:09;9.10;52.30
326;DHT22;150;52.352;14.058;2024-02-16T03:51:35;9.10;52.20
326;DHT22;150;52.352;14.058;2024-02-16T03:54:02;9.20;52.10
326;DHT22;150;52.352;14.058;2024-02-16T03:56:29;9.20;51.90
326;DHT22;150;52.352;14.058;2024-02-16T03:58:56;9.20;51.30
326;DHT22;150;52.352;14.058;2024-02-16T04:01:23;9.30;51.10
326;DHT22;150;52.352;14.058;2024-02-16T04:03:49;9.30;50.80
326;DHT22;150;52.352;14.058;2024-02-16T04:06:19;9.30;50.80
326;DHT22;150;52.352;14.058;2024-02-16T04:08:46;9.20;50.50
326;DHT22;150;52.352;14.058;2024-02-16T04:11:14;9.20;50.60
326;DHT22;150;52.352;14.058;2024-02-16T04:13:41;9.10;50.70
326;DHT22;150;52.352;14.058;2024-02-16T04:16:08;9.00;51.20
326;DHT22;150;52.352;14.058;2024-02-16T04:18:34;9.10;51.50
326;DHT22;150;52.352;14.058;2024-02-16T04:21:01;9.10;51.20
326;DHT22;150;52.352;14.058;2024-02-16T04:23:29;9.10;51.00
326;DHT22;150;52.352;14.058;2024-02-16T04:25:56;9.10;51.10
326;DHT22;150;52.352;14.058;2024-02-16T04:28:22;9.10;51.10
326;DHT22;150;52.352;14.058;2024-02-16T04:30:49;9.00;51.20
326;DHT22;150;52.352;14.058;2024-02-16T04:33:15;9.10;51.50
326;DHT22;150;52.352;14.058;2024-02-16T04:35:42;9.00;51.20
326;DHT22;150;52.352;14.058;2024-02-16T04:38:12;9.00;51.60
326;DHT22;150;52.352;14.058;2024-02-16T04:40:40;9.00;51.70
326;DHT22;150;52.352;14.058;2024-02-16T04:43:06;8.90;51.60
326;DHT22;150;52.352;14.058;2024-02-16T04:45:33;8.90;52.00
326;DHT22;150;52.352;14.058;2024-02-16T04:48:03;8.90;52.30
326;DHT22;150;52.352;14.058;2024-02-16T04:50:31;8.90;52.40
326;DHT22;150;52.352;14.058;2024-02-16T04:52:58;8.90;52.30
326;DHT22;150;52.352;14.058;2024-02-16T04:55:25;8.90;52.00
326;DHT22;150;52.352;14.058;2024-02-16T04:57:52;8.90;52.30
326;DHT22;150;52.352;14.058;2024-02-16T05:00:19;8.90;52.30
326;DHT22;150;52.352;14.058;2024-02-16T05:02:46;9.00;51.90
326;DHT22;150;52.352;14.058;2024-02-16T05:05:12;9.00;52.00
326;DHT22;150;52.352;14.058;2024-02-16T05:07:41;9.00;51.60
326;DHT22;150;52.352;14.058;2024-02-16T05:10:09;9.00;51.30
326;DHT22;150;52.352;14.058;2024-02-16T05:12:36;9.00;51.50
326;DHT22;150;52.352;14.058;2024-02-16T05:15:05;9.00;51.40
326;DHT22;150;52.352;14.058;2024-02-16T05:17:32;9.00;51.40
326;DHT22;150;52.352;14.058;2024-02-16T05:19:58;9.00;51.50
326;DHT22;150;52.352;14.058;2024-02-16T05:22:25;9.00;51.40
326;DHT22;150;52.352;14.058;2024-02-16T05:24:51;8.90;51.90
326;DHT22;150;52.352;14.058;2024-02-16T05:27:18;8.90;52.00
326;DHT22;150;52.352;14.058;2024-02-16T05:29:45;8.90;52.00
326;DHT22;150;52.352;14.058;2024-02-16T05:32:13;8.80;52.50
326;DHT22;150;52.352;14.058;2024-02-16T05:34:39;8.90;53.00
326;DHT22;150;52.352;14.058;2024-02-16T05:37:06;9.00;52.80
326;DHT22;150;52.352;14.058;2024-02-16T05:39:35;9.00;53.20
326;DHT22;150;52.352;14.058;2024-02-16T05:42:19;9.00;52.30
326;DHT22;150;52.352;14.058;2024-02-16T05:44:45;9.20;52.50
326;DHT22;150;52.352;14.058;2024-02-16T05:47:13;9.20;51.80
326;DHT22;150;52.352;14.058;2024-02-16T05:49:40;9.20;51.90
326;DHT22;150;52.352;14.058;2024-02-16T05:52:06;9.30;51.20
326;DHT22;150;52.352;14.058;2024-02-16T05:54:46;9.30;50.90
326;DHT22;150;52.352;14.058;2024-02-16T05:57:14;9.40;50.40
326;DHT22;150;52.352;14.058;2024-02-16T05:59:42;9.40;50.30
326;DHT22;150;52.352;14.058;2024-02-16T06:02:08;9.30;50.00
326;DHT22;150;52.352;14.058;2024-02-16T06:04:38;9.40;50.10
326;DHT22;150;52.352;14.058;2024-02-16T06:07:04;9.40;50.30
326;DHT22;150;52.352;14.058;2024-02-16T06:09:31;9.40;49.50
326;DHT22;150;52.352;14.058;2024-02-16T06:12:01;9.40;49.70
326;DHT22;150;52.352;14.058;2024-02-16T06:14:30;9.40;49.50
326;DHT22;150;52.352;14.058;2024-02-16T06:16:56;9.40;49.10
326;DHT22;150;52.352;14.058;2024-02-16T06:19:23;9.40;49.00
326;DHT22;150;52.352;14.058;2024-02-16T06:21:51;9.30;48.80
326;DHT22;150;52.352;14.058;2024-02-16T06:24:17;9.30;49.20
326;DHT22;150;52.352;14.058;2024-02-16T06:26:44;9.20;49.10
326;DHT22;150;52.352;14.058;2024-02-16T06:29:11;9.10;49.20
326;DHT22;150;52.352;14.058;2024-02-16T06:31:37;9.10;49.50
326;DHT22;150;52.352;14.058;2024-02-16T06:34:04;9.10;49.90
326;DHT22;150;52.352;14.058;2024-02-16T06:36:30;9.10;49.50
326;DHT22;150;52.352;14.058;2024-02-16T06:38:59;9.00;49.60
326;DHT22;150;52.352;14.058;2024-02-16T06:41:25;9.00;49.60
326;DHT22;150;52.352;14.058;2024-02-16T06:43:52;9.00;49.70
326;DHT22;150;52.352;14.058;2024-02-16T06:46:18;9.00;50.30
326;DHT22;150;52.352;14.058;2024-02-16T06:48:45;8.90;50.00
326;DHT22;150;52.352;14.058;2024-02-16T06:51:12;8.90;50.60
326;DHT22;150;52.352;14.058;2024-02-16T06:53:38;8.80;50.40
326;DHT22;150;52.352;14.058;2024-02-16T06:56:07;8.80;50.70
326;DHT22;150;52.352;14.058;2024-02-16T06:58:33;8.90;50.70
326;DHT22;150;52.352;14.058;2024-02-16T07:01:01;8.90;51.10
326;DHT22;150;52.352;14.058;2024-02-16T07:03:29;8.90;51.50
326;DHT22;150;52.352;14.058;2024-02-16T07:05:55;9.00;51.00
326;DHT22;150;52.352;14.058;2024-02-16T07:08:22;9.00;50.60
326;DHT22;150;52.352;14.058;2024-02-16T07:10:49;9.10;50.20
326;DHT22;150;52.352;14.058;2024-02-16T07:13:18;9.10;49.90
326;DHT22;150;52.352;14.058;2024-02-16T07:15:45;9.20;50.10
326;DHT22;150;52.352;14.058;2024-02-16T07:18:12;9.30;49.60
326;DHT22;150;52.352;14.058;2024-02-16T07:20:39;9.40;49.30
326;DHT22;150;52.352;14.058;2024-02-16T07:23:06;9.50;49.00
326;DHT22;150;52.352;14.058;2024-02-16T07:25:34;9.60;47.80
326;DHT22;150;52.352;14.058;2024-02-16T07:28:01;9.70;47.80
326;DHT22;150;52.352;14.058;2024-02-16T07:30:29;9.70;46.70
326;DHT22;150;52.352;14.058;2024-02-16T07:32:55;9.70;46.70
326;DHT22;150;52.352;14.058;2024-02-16T07:35:22;9.70;46.40
326;DHT22;150;52.352;14.058;2024-02-16T07:37:49;9.80;46.40
326;DHT22;150;52.352;14.058;2024-02-16T07:40:17;9.90;45.80
326;DHT22;150;52.352;14.058;2024-02-16T07:42:44;9.90;45.30
326;DHT22;150;52.352;14.058;2024-02-16T07:45:11;9.90;45.30
326;DHT22;150;52.352;14.058;2024-02-16T07:47:40;9.80;44.60
326;DHT22;150;52.352;14.058;2024-02-16T07:50:07;9.90;45.20
326;DHT22;150;52.352;14.058;2024-02-16T07:52:34;9.90;44.70
326;DHT22;150;52.352;14.058;2024-02-16T07:55:01;9.90;44.80
326;DHT22;150;52.352;14.058;2024-02-16T07:57:27;9.80;44.70
326;DHT22;150;52.352;14.058;2024-02-16T07:59:54;9.90;44.90
326;DHT22;150;52.352;14.058;2024-02-16T08:02:21;9.90;44.70
326;DHT22;150;52.352;14.058;2024-02-16T08:04:49;9.90;44.70
326;DHT22;150;52.352;14.058;2024-02-16T08:07:16;9.70;44.60
326;DHT22;150;52.352;14.058;2024-02-16T08:09:43;9.70;44.70
326;DHT22;150;52.352;14.058;2024-02-16T08:12:10;9.70;44.50
326;DHT22;150;52.352;14.058;2024-02-16T08:14:38;9.80;44.60
326;DHT22;150;52.352;14.058;2024-02-16T08:17:04;9.80;44.70
326;DHT22;150;52.352;14.058;2024-02-16T08:19:32;9.90;44.80
326;DHT22;150;52.352;14.058;2024-02-16T08:22:01;9.80;44.60
326;DHT22;150;52.352;14.058;2024-02-16T08:24:28;9.90;44.70
326;DHT22;150;52.352;14.058;2024-02-16T08:26:55;9.90;44.70
326;DHT22;150;52.352;14.058;2024-02-16T08:29:21;10.00;44.90
326;DHT22;150;52.352;14.058;2024-02-16T08:31:49;10.10;44.00
326;DHT22;150;52.352;14.058;2024-02-16T08:34:18;10.30;44.40
326;DHT22;150;52.352;14.058;2024-02-16T08:36:46;10.40;43.10
326;DHT22;150;52.352;14.058;2024-02-16T08:39:15;10.60;43.30
326;DHT22;150;52.352;14.058;2024-02-16T08:41:42;10.90;42.70
326;DHT22;150;52.352;14.058;2024-02-16T08:44:09;11.00;41.30
326;DHT22;150;52.352;14.058;2024-02-16T08:46:36;11.20;41.40
326;DHT22;150;52.352;14.058;2024-02-16T08:49:03;11.30;39.30
326;DHT22;150;52.352;14.058;2024-02-16T08:51:31;11.40;39.30
326;DHT22;150;52.352;14.058;2024-02-16T08:53:58;11.50;38.40
326;DHT22;150;52.352;14.058;2024-02-16T08:56:26;11.60;38.80
326;DHT22;150;52.352;14.058;2024-02-16T08:58:53;11.80;38.70
326;DHT22;150;52.352;14.058;2024-02-16T09:01:30;11.90;38.30
326;DHT22;150;52.352;14.058;2024-02-16T09:03:56;12.10;37.60
326;DHT22;150;52.352;14.058;2024-02-16T09:06:23;12.10;36.70
326;DHT22;150;52.352;14.058;2024-02-16T09:08:49;12.10;36.00
326;DHT22;150;52.352;14.058;2024-02-16T09:11:16;12.10;35.10
326;DHT22;150;52.352;14.058;2024-02-16T09:13:44;12.10;34.60
326;DHT22;150;52.352;14.058;2024-02-16T09:16:10;12.10;35.10
326;DHT22;150;52.352;14.058;2024-02-16T09:18:37;11.90;35.90
326;DHT22;150;52.352;14.058;2024-02-16T09:21:04;11.90;35.90
326;DHT22;150;52.352;14.058;2024-02-16T09:23:31;11.80;35.80
326;DHT22;150;52.352;14.058;2024-02-16T09:25:58;11.90;35.90
326;DHT22;150;52.352;14.058;2024-02-16T09:28:25;11.90;35.90
326;DHT22;150;52.352;14.058;2024-02-16T09:30:54;11.90;35.90
326;DHT22;150;52.352;14.058;2024-02-16T09:33:20;12.00;36.00
326;DHT22;150;52.352;14.058;2024-02-16T09:35:47;12.10;35.60
326;DHT22;150;52.352;14.058;2024-02-16T09:38:14;12.20;35.80
326;DHT22;150;52.352;14.058;2024-02-16T09:40:41;12.30;35.10
326;DHT22;150;52.352;14.058;2024-02-16T09:43:07;12.30;35.60
326;DHT22;150;52.352;14.058;2024-02-16T09:45:34;12.40;35.50
326;DHT22;150;52.352;14.058;2024-02-16T09:48:02;12.40;35.10
326;DHT22;150;52.352;14.058;2024-02-16T09:50:31;12.40;34.60
326;DHT22;150;52.352;14.058;2024-02-16T09:52:58;12.40;34.50
326;DHT22;150;52.352;14.058;2024-02-16T09:55:25;12.50;34.50
326;DHT22;150;52.352;14.058;2024-02-16T09:57:58;12.50;34.10
326;DHT22;150;52.352;14.058;2024-02-16T10:00:25;12.50;34.60
326;DHT22;150;52.352;14.058;2024-02-16T10:02:52;12.60;34.90
326;DHT22;150;52.352;14.058;2024-02-16T10:05:20;12.60;33.30
326;DHT22;150;52.352;14.058;2024-02-16T10:07:47;12.60;32.90
326;DHT22;150;52.352;14.058;2024-02-16T10:10:20;12.60;32.70
326;DHT22;150;52.352;14.058;2024-02-16T10:12:48;12.60;33.10
326;DHT22;150;52.352;14.058;2024-02-16T10:15:19;12.60;33.20
326;DHT22;150;52.352;14.058;2024-02-16T10:17:57;12.50;33.30
326;DHT22;150;52.352;14.058;2024-02-16T10:20:25;12.60;33.40
326;DHT22;150;52.352;14.058;2024-02-16T10:23:05;12.50;33.10
326;DHT22;150;52.352;14.058;2024-02-16T10:25:32;12.60;32.90
326;DHT22;150;52.352;14.058;2024-02-16T10:27:59;12.70;32.50
326;DHT22;150;52.352;14.058;2024-02-16T10:30:29;12.70;31.80
326;DHT22;150;52.352;14.058;2024-02-16T10:32:57;12.70;31.20
326;DHT22;150;52.352;14.058;2024-02-16T10:35:25;12.70;31.90
326;DHT22;150;52.352;14.058;2024-02-16T10:37:52;12.60;31.30
326;DHT22;150;52.352;14.058;2024-02-16T10:40:22;12.60;31.80
326;DHT22;150;52.352;14.058;2024-02-16T10:42:50;12.70;31.20
326;DHT22;150;52.352;14.058;2024-02-16T10:45:17;12.70;31.70
326;DHT22;150;52.352;14.058;2024-02-16T10:47:44;12.70;31.50
326;DHT22;150;52.352;14.058;2024-02-16T10:50:12;12.70;31.40
326;DHT22;150;52.352;14.058;2024-02-16T10:52:41;12.70;31.20
326;DHT22;150;52.352;14.058;2024-02-16T10:55:10;12.80;31.30
326;DHT22;150;52.352;14.058;2024-02-16T10:57:36;12.90;30.50
326;DHT22;150;52.352;14.058;2024-02-16T11:00:08;12.90;30.80
326;DHT22;150;52.352;14.058;2024-02-16T12:44:56;14.60;26.60
326;DHT22;150;52.352;14.058;2024-02-16T12:47:43;14.60;25.90
326;DHT22;150;52.352;14.058;2024-02-16T12:50:35;14.70;26.40
326;DHT22;150;52.352;14.058;2024-02-16T12:53:23;14.70;26.40
326;DHT22;150;52.352;14.058;2024-02-16T12:56:26;14.60;26.50
326;DHT22;150;52.352;14.058;2024-02-16T12:59:13;14.70;26.80
326;DHT22;150;52.352;14.058;2024-02-16T13:02:07;14.70;26.90
326;DHT22;150;52.352;14.058;2024-02-16T13:05:08;14.70;26.60
326;DHT22;150;52.352;14.058;2024-02-16T13:08:01;14.80;26.40
326;DHT22;150;52.352;14.058;2024-02-16T13:10:50;14.80;26.90
326;DHT22;150;52.352;14.058;2024-02-16T13:13:57;14.80;25.90
326;DHT22;150;52.352;14.058;2024-02-16T13:16:48;14.80;26.20
326;DHT22;150;52.352;14.058;2024-02-16T13:19:43;14.70;26.80
326;DHT22;150;52.352;14.058;2024-02-16T13:22:35;14.70;26.40
326;DHT22;150;52.352;14.058;2024-02-16T13:25:24;14.80;27.00
326;DHT22;150;52.352;14.058;2024-02-16T13:28:15;14.80;26.50
326;DHT22;150;52.352;14.058;2024-02-16T13:31:09;15.00;26.50
326;DHT22;150;52.352;14.058;2024-02-16T13:34:29;15.00;27.20
326;DHT22;150;52.352;14.058;2024-02-16T13:37:51;15.10;26.70
326;DHT22;150;52.352;14.058;2024-02-16T13:40:48;15.10;26.40
326;DHT22;150;52.352;14.058;2024-02-16T13:43:42;15.10;25.80
326;DHT22;150;52.352;14.058;2024-02-16T13:49:48;15.00;26.40
326;DHT22;150;52.352;14.058;2024-02-16T13:52:40;15.00;25.90
326;DHT22;150;52.352;14.058;2024-02-16T13:55:34;15.10;26.30
326;DHT22;150;52.352;14.058;2024-02-16T13:58:32;15.10;26.20
326;DHT22;150;52.352;14.058;2024-02-16T14:01:36;15.10;25.70
326;DHT22;150;52.352;14.058;2024-02-16T14:05:58;15.00;25.70
326;DHT22;150;52.352;14.058;2024-02-16T14:08:06;15.00;25.40
326;DHT22;150;52.352;14.058;2024-02-16T14:11:15;15.00;25.80
326;DHT22;150;52.352;14.058;2024-02-16T14:14:09;14.90;26.10
326;DHT22;150;52.352;14.058;2024-02-16T14:16:56;14.90;25.50
326;DHT22;150;52.352;14.058;2024-02-16T14:19:43;14.80;25.80
326;DHT22;150;52.352;14.058;2024-02-16T14:22:10;14.80;25.90
326;DHT22;150;52.352;14.058;2024-02-16T14:24:38;14.70;25.70
326;DHT22;150;52.352;14.058;2024-02-16T14:27:12;14.60;26.00
326;DHT22;150;52.352;14.058;2024-02-16T14:29:39;14.60;26.10
326;DHT22;150;52.352;14.058;2024-02-16T14:32:10;14.50;26.50
326;DHT22;150;52.352;14.058;2024-02-16T14:35:06;14.40;26.60
326;DHT22;150;52.352;14.058;2024-02-16T14:37:33;14.40;26.80
326;DHT22;150;52.352;14.058;2024-02-16T14:40:00;14.40;26.80
326;DHT22;150;52.352;14.058;2024-02-16T14:42:32;14.40;26.90
326;DHT22;150;52.352;14.058;2024-02-16T14:44:58;14.40;26.90
326;DHT22;150;52.352;14.058;2024-02-16T14:47:25;14.40;27.10
326;DHT22;150;52.352;14.058;2024-02-16T14:50:05;14.40;26.80
326;DHT22;150;52.352;14.058;2024-02-16T14:52:35;14.40;27.10
326;DHT22;150;52.352;14.058;2024-02-16T14:55:06;14.40;26.80
326;DHT22;150;52.352;14.058;2024-02-16T14:57:36;14.40;26.90
326;DHT22;150;52.352;14.058;2024-02-16T15:00:07;14.30;26.70
326;DHT22;150;52.352;14.058;2024-02-16T15:02:36;14.20;26.90
326;DHT22;150;52.352;14.058;2024-02-16T15:05:03;14.20;27.20
326;DHT22;150;52.352;14.058;2024-02-16T15:07:30;14.20;27.70
326;DHT22;150;52.352;14.058;2024-02-16T15:10:00;14.20;27.40
326;DHT22;150;52.352;14.058;2024-02-16T15:12:27;14.10;27.50
326;DHT22;150;52.352;14.058;2024-02-16T15:14:55;14.20;27.30
326;DHT22;150;52.352;14.058;2024-02-16T15:17:22;14.20;27.50
326;DHT22;150;52.352;14.058;2024-02-16T15:19:48;14.10;27.00
326;DHT22;150;52.352;14.058;2024-02-16T15:22:19;14.10;27.30
326;DHT22;150;52.352;14.058;2024-02-16T15:24:54;14.00;27.60
326;DHT22;150;52.352;14.058;2024-02-16T15:27:34;14.10;27.70
326;DHT22;150;52.352;14.058;2024-02-16T15:30:11;14.10;28.20
326;DHT22;150;52.352;14.058;2024-02-16T15:32:55;14.10;27.70
326;DHT22;150;52.352;14.058;2024-02-16T15:35:31;13.90;27.50
326;DHT22;150;52.352;14.058;2024-02-16T15:38:19;13.80;27.70
326;DHT22;150;52.352;14.058;2024-02-16T15:41:03;13.70;27.70
326;DHT22;150;52.352;14.058;2024-02-16T15:43:44;13.60;28.40
326;DHT22;150;52.352;14.058;2024-02-16T15:46:38;13.50;28.20
326;DHT22;150;52.352;14.058;2024-02-16T15:49:09;13.60;28.30
326;DHT22;150;52.352;14.058;2024-02-16T15:51:43;13.60;28.50
326;DHT22;150;52.352;14.058;2024-02-16T15:54:16;13.50;28.40
326;DHT22;150;52.352;14.058;2024-02-16T15:56:44;13.50;28.60
326;DHT22;150;52.352;14.058;2024-02-16T15:59:17;13.40;28.60
326;DHT22;150;52.352;14.058;2024-02-16T16:01:59;13.40;28.50
326;DHT22;150;52.352;14.058;2024-02-16T16:05:09;13.50;28.50
326;DHT22;150;52.352;14.058;2024-02-16T16:07:53;13.50;28.60
326;DHT22;150;52.352;14.058;2024-02-16T16:11:16;13.40;28.50
326;DHT22;150;52.352;14.058;2024-02-16T16:13:36;13.40;28.70
326;DHT22;150;52.352;14.058;2024-02-16T16:16:08;13.40;28.50
326;DHT22;150;52.352;14.058;2024-02-16T16:18:36;13.40;28.30
326;DHT22;150;52.352;14.058;2024-02-16T16:21:03;13.40;28.70
326;DHT22;150;52.352;14.058;2024-02-16T16:23:32;13.50;28.80
326;DHT22;150;52.352;14.058;2024-02-16T16:26:23;13.40;29.30
326;DHT22;150;52.352;14.058;2024-02-16T16:28:54;13.40;29.60
326;DHT22;150;52.352;14.058;2024-02-16T16:31:20;13.30;29.50
326;DHT22;150;52.352;14.058;2024-02-16T16:33:51;13.40;29.80
326;DHT22;150;52.352;14.058;2024-02-16T16:36:24;13.30;29.70
326;DHT22;150;52.352;14.058;2024-02-16T16:39:08;13.30;29.60
326;DHT22;150;52.352;14.058;2024-02-16T16:41:35;13.20;30.00
326;DHT22;150;52.352;14.058;2024-02-16T16:44:03;13.20;30.00
326;DHT22;150;52.352;14.058;2024-02-16T16:46:30;13.10;29.80
326;DHT22;150;52.352;14.058;2024-02-16T16:48:58;13.10;29.80
326;DHT22;150;52.352;14.058;2024-02-16T16:51:24;13.00;29.80
326;DHT22;150;52.352;14.058;2024-02-16T16:53:51;13.00;29.80
326;DHT22;150;52.352;14.058;2024-02-16T16:56:18;13.00;30.10
326;DHT22;150;52.352;14.058;2024-02-16T16:58:44;13.10;30.10
326;DHT22;150;52.352;14.058;2024-02-16T17:01:11;13.10;30.00
326;DHT22;150;52.352;14.058;2024-02-16T17:03:38;13.00;29.60
326;DHT22;150;52.352;14.058;2024-02-16T17:06:06;13.00;30.00
326;DHT22;150;52.352;14.058;2024-02-16T17:08:33;12.90;30.10
326;DHT22;150;52.352;14.058;2024-02-16T17:11:02;12.90;29.90
326;DHT22;150;52.352;14.058;2024-02-16T17:13:28;12.90;30.00
326;DHT22;150;52.352;14.058;2024-02-16T17:15:55;13.00;30.10
326;DHT22;150;52.352;14.058;2024-02-16T17:18:24;12.90;29.90
326;DHT22;150;52.352;14.058;2024-02-16T17:20:51;12.90;29.80
326;DHT22;150;52.352;14.058;2024-02-16T17:23:19;13.00;30.00
326;DHT22;150;52.352;14.058;2024-02-16T17:25:46;13.00;30.00
326;DHT22;150;52.352;14.058;2024-02-16T17:28:14;13.00;29.70
326;DHT22;150;52.352;14.058;2024-02-16T17:30:40;13.00;30.00
326;DHT22;150;52.352;14.058;2024-02-16T17:33:09;12.90;29.80
326;DHT22;150;52.352;14.058;2024-02-16T17:35:36;12.90;30.60
326;DHT22;150;52.352;14.058;2024-02-16T17:38:04;12.90;29.90
326;DHT22;150;52.352;14.058;2024-02-16T17:40:32;12.90;30.00
326;DHT22;150;52.352;14.058;2024-02-16T17:42:59;12.90;29.80
326;DHT22;150;52.352;14.058;2024-02-16T17:45:27;12.90;30.00
326;DHT22;150;52.352;14.058;2024-02-16T17:47:53;12.90;30.20
326;DHT22;150;52.352;14.058;2024-02-16T17:50:20;12.80;30.00
326;DHT22;150;52.352;14.058;2024-02-16T17:52:46;12.90;30.00
326;DHT22;150;52.352;14.058;2024-02-16T17:55:13;12.80;29.90
326;DHT22;150;52.352;14.058;2024-02-16T17:57:41;12.80;30.20
326;DHT22;150;52.352;14.058;2024-02-16T18:00:09;12.70;30.60
326;DHT22;150;52.352;14.058;2024-02-16T18:02:38;12.80;30.70
326;DHT22;150;52.352;14.058;2024-02-16T18:05:05;12.80;30.50
326;DHT22;150;52.352;14.058;2024-02-16T18:07:32;12.80;30.40
326;DHT22;150;52.352;14.058;2024-02-16T18:09:58;12.70;30.80
326;DHT22;150;52.352;14.058;2024-02-16T18:12:25;12.70;30.90
326;DHT22;150;52.352;14.058;2024-02-16T18:14:53;12.70;30.80
326;DHT22;150;52.352;14.058;2024-02-16T18:17:19;12.80;30.90
326;DHT22;150;52.352;14.058;2024-02-16T18:19:46;12.80;31.20
326;DHT22;150;52.352;14.058;2024-02-16T18:22:13;12.80;30.70
326;DHT22;150;52.352;14.058;2024-02-16T18:24:39;12.80;31.00
326;DHT22;150;52.352;14.058;2024-02-16T18:27:06;12.80;31.00
326;DHT22;150;52.352;14.058;2024-02-16T18:29:33;12.80;30.90
326;DHT22;150;52.352;14.058;2024-02-16T18:32:02;12.80;30.90
326;DHT22;150;52.352;14.058;2024-02-16T18:34:29;12.70;31.10